Kezdőlap
METAR-TAF:

METAR-TAF

Repülőterek :

Pago Pago, Az Amerikai Egyesült Államok lakatlan külbirtokai

földrajzi szélesség: 14-20S, földrajzi hosszúság: 170-43W, magasság: 3 m

Jelenlegi meteorológiai megfigyelések

A jelentés 16 perccel ezelõtt készült, 10:50 UTC
Délkeleti szél 11 kt
Hőmérséklet 27°C
Páratartalom 84%
Légköri nyomás 1014 hPa
Látótávolság: 16.1 km
Kevés felhő 1900 lábon
Szórványos felhőzet 4000 lábon
Szakadozott felhőzet 10000 lábon

METAR: NSTU 181050Z 13011KT 10SM FEW019 SCT040 BKN100 27/24 A2993 RMK SLP135 T02720238 403020255

Idő: 00:06 (11:06 UTC)

Előrejelzés

A jelentés 5 órával és 46 perccel ezelõtt készült, 05:20 UTC
Az előrejelzés 18-én 06 óra UTC és 19-én 06 óra UTC között érvényes
Keleti szél 11 kt
Látótávolság: 10 km
Kevés felhő 1800 lábon
Szórványos felhőzet 4000 lábon
Szakadozott felhőzet 20000 lábon
Záporok a közelben

TAF: NSTU 180520Z 1806/1906 10011KT P6SM VCSH FEW018 SCT040 BKN200

Meteorológiai megfigyelések és előrejelzések több, mint 4000 repülőtéren (METAR és TAF jelentéseket).

A térképen piros és sárga pontok jelzik az elérhető meteorológiai állomásokat.

Mozgassa az egeret a pont fölött, hogy megjelenjen az állomás neve.

Azután kattintson az időjárási megfigyelések és előrejelzések megtekintéséhez.

A térkép megváltoztatása: kattintson a fekete keresztel jelölt zöld gombra ráközelítéshez, a vonallal jelölt zöld gombra távolításhoz, vagy a zöld nyilakra a szomszédos térképek eléréséhez.


METAR-TAF: